sensor_id;sensor_type;location;lat;lon;timestamp;temperature;humidity
5554;DHT22;2800;49.528;8.666;2022-07-29T00:00:12;22.40;99.90
5554;DHT22;2800;49.528;8.666;2022-07-29T00:02:37;22.40;99.90
5554;DHT22;2800;49.528;8.666;2022-07-29T00:05:04;22.60;99.90
5554;DHT22;2800;49.528;8.666;2022-07-29T00:07:30;22.50;99.90
5554;DHT22;2800;49.528;8.666;2022-07-29T00:09:56;22.50;99.90
5554;DHT22;2800;49.528;8.666;2022-07-29T00:12:23;22.50;99.90
5554;DHT22;2800;49.528;8.666;2022-07-29T00:14:49;22.50;99.90
5554;DHT22;2800;49.528;8.666;2022-07-29T00:17:15;22.50;99.90
5554;DHT22;2800;49.528;8.666;2022-07-29T00:19:40;22.60;99.90
5554;DHT22;2800;49.528;8.666;2022-07-29T00:22:06;22.50;99.90
5554;DHT22;2800;49.528;8.666;2022-07-29T00:24:31;22.50;99.90
5554;DHT22;2800;49.528;8.666;2022-07-29T00:26:57;22.50;99.90
5554;DHT22;2800;49.528;8.666;2022-07-29T00:29:23;22.40;99.90
5554;DHT22;2800;49.528;8.666;2022-07-29T00:31:48;22.40;99.90
5554;DHT22;2800;49.528;8.666;2022-07-29T00:34:14;22.30;99.90
5554;DHT22;2800;49.528;8.666;2022-07-29T00:36:58;22.30;99.90
5554;DHT22;2800;49.528;8.666;2022-07-29T00:39:24;22.30;99.90
5554;DHT22;2800;49.528;8.666;2022-07-29T00:41:49;22.30;99.90
5554;DHT22;2800;49.528;8.666;2022-07-29T00:44:15;22.30;99.90
5554;DHT22;2800;49.528;8.666;2022-07-29T00:46:41;22.20;99.90
5554;DHT22;2800;49.528;8.666;2022-07-29T00:49:06;22.20;99.90
5554;DHT22;2800;49.528;8.666;2022-07-29T00:51:34;22.20;99.90
5554;DHT22;2800;49.528;8.666;2022-07-29T00:54:00;22.20;99.90
5554;DHT22;2800;49.528;8.666;2022-07-29T00:56:26;22.10;99.90
5554;DHT22;2800;49.528;8.666;2022-07-29T00:58:55;22.00;99.90
5554;DHT22;2800;49.528;8.666;2022-07-29T01:01:21;22.10;99.90
5554;DHT22;2800;49.528;8.666;2022-07-29T01:03:47;22.00;99.90
5554;DHT22;2800;49.528;8.666;2022-07-29T01:06:12;22.00;99.90
5554;DHT22;2800;49.528;8.666;2022-07-29T01:08:38;21.80;99.90
5554;DHT22;2800;49.528;8.666;2022-07-29T01:11:05;21.80;99.90
5554;DHT22;2800;49.528;8.666;2022-07-29T01:13:31;21.70;99.90
5554;DHT22;2800;49.528;8.666;2022-07-29T01:16:13;21.60;99.90
5554;DHT22;2800;49.528;8.666;2022-07-29T01:18:44;21.60;99.90
5554;DHT22;2800;49.528;8.666;2022-07-29T01:27:33;21.60;99.90
5554;DHT22;2800;49.528;8.666;2022-07-29T01:30:03;21.60;99.90
5554;DHT22;2800;49.528;8.666;2022-07-29T01:32:33;21.50;99.90
5554;DHT22;2800;49.528;8.666;2022-07-29T01:37:43;21.40;99.90
5554;DHT22;2800;49.528;8.666;2022-07-29T01:40:18;21.40;99.90
5554;DHT22;2800;49.528;8.666;2022-07-29T01:42:49;21.30;99.90
5554;DHT22;2800;49.528;8.666;2022-07-29T01:46:11;21.00;99.90
5554;DHT22;2800;49.528;8.666;2022-07-29T01:48:50;20.90;99.90
5554;DHT22;2800;49.528;8.666;2022-07-29T01:51:20;20.80;99.90
5554;DHT22;2800;49.528;8.666;2022-07-29T01:56:35;20.60;99.90
5554;DHT22;2800;49.528;8.666;2022-07-29T01:59:03;20.40;99.90
5554;DHT22;2800;49.528;8.666;2022-07-29T02:01:31;20.20;99.90
5554;DHT22;2800;49.528;8.666;2022-07-29T02:03:59;20.20;99.90
5554;DHT22;2800;49.528;8.666;2022-07-29T02:06:28;20.10;99.90
5554;DHT22;2800;49.528;8.666;2022-07-29T02:08:56;20.10;99.90
5554;DHT22;2800;49.528;8.666;2022-07-29T02:11:23;20.30;99.90
5554;DHT22;2800;49.528;8.666;2022-07-29T02:13:49;20.60;99.90
5554;DHT22;2800;49.528;8.666;2022-07-29T02:16:19;20.80;99.90
5554;DHT22;2800;49.528;8.666;2022-07-29T02:18:48;21.00;99.90
5554;DHT22;2800;49.528;8.666;2022-07-29T02:21:20;21.00;99.90
5554;DHT22;2800;49.528;8.666;2022-07-29T02:23:48;21.00;99.90
5554;DHT22;2800;49.528;8.666;2022-07-29T02:26:15;21.00;99.90
5554;DHT22;2800;49.528;8.666;2022-07-29T02:28:42;20.90;99.90
5554;DHT22;2800;49.528;8.666;2022-07-29T02:31:08;21.00;99.90
5554;DHT22;2800;49.528;8.666;2022-07-29T02:33:35;20.90;99.90
5554;DHT22;2800;49.528;8.666;2022-07-29T02:36:01;20.80;99.90
5554;DHT22;2800;49.528;8.666;2022-07-29T02:38:28;20.80;99.90
5554;DHT22;2800;49.528;8.666;2022-07-29T02:41:22;20.90;99.90
5554;DHT22;2800;49.528;8.666;2022-07-29T02:43:52;21.20;99.90
5554;DHT22;2800;49.528;8.666;2022-07-29T02:46:23;21.10;99.90
5554;DHT22;2800;49.528;8.666;2022-07-29T02:48:59;21.10;99.90
5554;DHT22;2800;49.528;8.666;2022-07-29T02:51:54;21.10;99.90
5554;DHT22;2800;49.528;8.666;2022-07-29T02:54:41;21.20;99.90
5554;DHT22;2800;49.528;8.666;2022-07-29T02:57:28;21.10;99.90
5554;DHT22;2800;49.528;8.666;2022-07-29T02:59:57;21.00;99.90
5554;DHT22;2800;49.528;8.666;2022-07-29T03:02:25;21.00;99.90
5554;DHT22;2800;49.528;8.666;2022-07-29T03:04:52;21.00;99.90
5554;DHT22;2800;49.528;8.666;2022-07-29T03:07:20;20.90;99.90
5554;DHT22;2800;49.528;8.666;2022-07-29T03:09:46;20.80;99.90
5554;DHT22;2800;49.528;8.666;2022-07-29T03:12:12;20.70;99.90
5554;DHT22;2800;49.528;8.666;2022-07-29T03:14:39;20.60;99.90
5554;DHT22;2800;49.528;8.666;2022-07-29T03:17:05;20.60;99.90
5554;DHT22;2800;49.528;8.666;2022-07-29T03:19:31;20.50;99.90
5554;DHT22;2800;49.528;8.666;2022-07-29T03:21:58;20.50;99.90
5554;DHT22;2800;49.528;8.666;2022-07-29T03:24:29;20.60;99.90
5554;DHT22;2800;49.528;8.666;2022-07-29T03:26:56;20.50;99.90
5554;DHT22;2800;49.528;8.666;2022-07-29T03:29:22;20.50;99.90
5554;DHT22;2800;49.528;8.666;2022-07-29T03:31:48;20.40;99.90
5554;DHT22;2800;49.528;8.666;2022-07-29T03:34:13;20.40;99.90
5554;DHT22;2800;49.528;8.666;2022-07-29T03:36:39;20.50;99.90
5554;DHT22;2800;49.528;8.666;2022-07-29T03:39:05;20.50;99.90
5554;DHT22;2800;49.528;8.666;2022-07-29T03:41:31;20.40;99.90
5554;DHT22;2800;49.528;8.666;2022-07-29T03:43:58;20.40;99.90
5554;DHT22;2800;49.528;8.666;2022-07-29T03:46:26;20.40;99.90
5554;DHT22;2800;49.528;8.666;2022-07-29T03:48:57;20.30;99.90
5554;DHT22;2800;49.528;8.666;2022-07-29T03:51:24;20.20;99.90
5554;DHT22;2800;49.528;8.666;2022-07-29T03:53:50;20.10;99.90
5554;DHT22;2800;49.528;8.666;2022-07-29T03:56:17;20.00;99.90
5554;DHT22;2800;49.528;8.666;2022-07-29T03:58:46;19.90;99.90
5554;DHT22;2800;49.528;8.666;2022-07-29T04:01:13;20.00;99.90
5554;DHT22;2800;49.528;8.666;2022-07-29T04:03:39;20.00;99.90
5554;DHT22;2800;49.528;8.666;2022-07-29T04:06:06;20.10;99.90
5554;DHT22;2800;49.528;8.666;2022-07-29T04:08:32;20.00;99.90
5554;DHT22;2800;49.528;8.666;2022-07-29T04:10:59;20.10;99.90
5554;DHT22;2800;49.528;8.666;2022-07-29T04:13:25;20.00;99.90
5554;DHT22;2800;49.528;8.666;2022-07-29T04:15:51;20.00;99.90
5554;DHT22;2800;49.528;8.666;2022-07-29T04:18:16;20.10;99.90
5554;DHT22;2800;49.528;8.666;2022-07-29T04:20:42;20.10;99.90
5554;DHT22;2800;49.528;8.666;2022-07-29T04:23:07;20.10;99.90
5554;DHT22;2800;49.528;8.666;2022-07-29T04:25:33;20.10;99.90
5554;DHT22;2800;49.528;8.666;2022-07-29T04:28:01;20.10;99.90
5554;DHT22;2800;49.528;8.666;2022-07-29T04:30:27;20.10;99.90
5554;DHT22;2800;49.528;8.666;2022-07-29T04:32:53;20.00;99.90
5554;DHT22;2800;49.528;8.666;2022-07-29T04:35:21;20.10;99.90
5554;DHT22;2800;49.528;8.666;2022-07-29T04:37:47;20.10;99.90
5554;DHT22;2800;49.528;8.666;2022-07-29T04:40:12;20.10;99.90
5554;DHT22;2800;49.528;8.666;2022-07-29T04:42:39;20.00;99.90
5554;DHT22;2800;49.528;8.666;2022-07-29T04:45:05;20.00;99.90
5554;DHT22;2800;49.528;8.666;2022-07-29T04:47:31;20.00;99.90
5554;DHT22;2800;49.528;8.666;2022-07-29T04:49:56;20.00;99.90
5554;DHT22;2800;49.528;8.666;2022-07-29T04:52:23;20.00;99.90
5554;DHT22;2800;49.528;8.666;2022-07-29T04:54:48;19.90;99.90
5554;DHT22;2800;49.528;8.666;2022-07-29T04:57:14;19.80;99.90
5554;DHT22;2800;49.528;8.666;2022-07-29T04:59:39;19.70;99.90
5554;DHT22;2800;49.528;8.666;2022-07-29T05:02:05;19.70;99.90
5554;DHT22;2800;49.528;8.666;2022-07-29T05:04:30;19.60;99.90
5554;DHT22;2800;49.528;8.666;2022-07-29T05:06:56;19.60;99.90
5554;DHT22;2800;49.528;8.666;2022-07-29T05:09:22;19.60;99.90
5554;DHT22;2800;49.528;8.666;2022-07-29T05:11:47;19.60;99.90
5554;DHT22;2800;49.528;8.666;2022-07-29T05:14:13;19.60;99.90
5554;DHT22;2800;49.528;8.666;2022-07-29T05:16:38;19.70;99.90
5554;DHT22;2800;49.528;8.666;2022-07-29T05:19:07;19.70;99.90
5554;DHT22;2800;49.528;8.666;2022-07-29T05:21:32;19.70;99.90
5554;DHT22;2800;49.528;8.666;2022-07-29T05:23:58;19.80;99.90
5554;DHT22;2800;49.528;8.666;2022-07-29T05:26:23;19.80;99.90
5554;DHT22;2800;49.528;8.666;2022-07-29T05:28:49;19.90;99.90
5554;DHT22;2800;49.528;8.666;2022-07-29T05:31:15;20.00;99.90
5554;DHT22;2800;49.528;8.666;2022-07-29T05:33:41;20.20;99.90
5554;DHT22;2800;49.528;8.666;2022-07-29T05:36:07;20.30;99.90
5554;DHT22;2800;49.528;8.666;2022-07-29T05:38:33;20.40;99.90
5554;DHT22;2800;49.528;8.666;2022-07-29T05:40:59;20.40;99.90
5554;DHT22;2800;49.528;8.666;2022-07-29T05:43:28;20.50;99.90
5554;DHT22;2800;49.528;8.666;2022-07-29T05:45:54;20.70;99.90
5554;DHT22;2800;49.528;8.666;2022-07-29T05:48:20;20.70;99.90
5554;DHT22;2800;49.528;8.666;2022-07-29T05:50:46;20.90;99.90
5554;DHT22;2800;49.528;8.666;2022-07-29T05:53:11;21.00;99.90
5554;DHT22;2800;49.528;8.666;2022-07-29T05:55:37;21.10;99.90
5554;DHT22;2800;49.528;8.666;2022-07-29T05:58:02;21.20;99.90
5554;DHT22;2800;49.528;8.666;2022-07-29T06:00:28;21.30;99.90
5554;DHT22;2800;49.528;8.666;2022-07-29T06:02:54;21.40;99.90
5554;DHT22;2800;49.528;8.666;2022-07-29T06:05:19;21.40;99.90
5554;DHT22;2800;49.528;8.666;2022-07-29T06:07:45;21.50;99.90
5554;DHT22;2800;49.528;8.666;2022-07-29T06:10:11;21.60;99.90
5554;DHT22;2800;49.528;8.666;2022-07-29T06:12:36;21.80;99.90
5554;DHT22;2800;49.528;8.666;2022-07-29T06:15:02;21.90;99.90
5554;DHT22;2800;49.528;8.666;2022-07-29T06:17:28;22.20;99.90
5554;DHT22;2800;49.528;8.666;2022-07-29T06:19:53;22.40;99.90
5554;DHT22;2800;49.528;8.666;2022-07-29T06:22:19;22.60;99.90
5554;DHT22;2800;49.528;8.666;2022-07-29T06:24:44;22.70;99.90
5554;DHT22;2800;49.528;8.666;2022-07-29T06:27:13;22.80;99.90
5554;DHT22;2800;49.528;8.666;2022-07-29T06:29:39;22.90;99.90
5554;DHT22;2800;49.528;8.666;2022-07-29T06:32:05;23.20;99.90
5554;DHT22;2800;49.528;8.666;2022-07-29T06:34:31;23.20;99.90
5554;DHT22;2800;49.528;8.666;2022-07-29T06:36:56;23.40;99.90
5554;DHT22;2800;49.528;8.666;2022-07-29T06:39:22;23.80;99.90
5554;DHT22;2800;49.528;8.666;2022-07-29T06:41:48;24.20;99.90
5554;DHT22;2800;49.528;8.666;2022-07-29T06:44:17;24.60;99.90
5554;DHT22;2800;49.528;8.666;2022-07-29T06:46:43;24.80;99.90
5554;DHT22;2800;49.528;8.666;2022-07-29T06:49:09;25.00;99.90
5554;DHT22;2800;49.528;8.666;2022-07-29T06:51:35;25.10;99.90
5554;DHT22;2800;49.528;8.666;2022-07-29T06:54:02;25.10;99.90
5554;DHT22;2800;49.528;8.666;2022-07-29T06:56:31;25.40;99.90
5554;DHT22;2800;49.528;8.666;2022-07-29T06:58:57;25.50;99.90
5554;DHT22;2800;49.528;8.666;2022-07-29T07:01:22;25.40;99.90
5554;DHT22;2800;49.528;8.666;2022-07-29T07:03:48;25.30;99.90
5554;DHT22;2800;49.528;8.666;2022-07-29T07:06:14;25.30;99.90
5554;DHT22;2800;49.528;8.666;2022-07-29T07:08:39;25.70;99.90
5554;DHT22;2800;49.528;8.666;2022-07-29T07:11:05;25.20;99.90
5554;DHT22;2800;49.528;8.666;2022-07-29T07:13:31;25.00;99.90
5554;DHT22;2800;49.528;8.666;2022-07-29T07:16:01;25.30;99.90
5554;DHT22;2800;49.528;8.666;2022-07-29T07:18:26;25.30;99.90
5554;DHT22;2800;49.528;8.666;2022-07-29T07:20:53;25.40;99.90
5554;DHT22;2800;49.528;8.666;2022-07-29T07:23:18;25.10;99.90
5554;DHT22;2800;49.528;8.666;2022-07-29T07:25:44;25.00;99.90
5554;DHT22;2800;49.528;8.666;2022-07-29T07:28:10;25.00;99.90
5554;DHT22;2800;49.528;8.666;2022-07-29T07:30:36;25.10;99.90
5554;DHT22;2800;49.528;8.666;2022-07-29T07:33:01;25.10;99.90
5554;DHT22;2800;49.528;8.666;2022-07-29T07:35:27;24.90;99.90
5554;DHT22;2800;49.528;8.666;2022-07-29T07:37:55;24.90;99.90
5554;DHT22;2800;49.528;8.666;2022-07-29T07:40:20;25.20;99.90
5554;DHT22;2800;49.528;8.666;2022-07-29T07:42:46;25.40;99.90
5554;DHT22;2800;49.528;8.666;2022-07-29T07:45:11;25.40;99.90
5554;DHT22;2800;49.528;8.666;2022-07-29T07:47:37;25.60;99.90
5554;DHT22;2800;49.528;8.666;2022-07-29T07:50:05;25.60;99.90
5554;DHT22;2800;49.528;8.666;2022-07-29T07:52:31;25.90;99.90
5554;DHT22;2800;49.528;8.666;2022-07-29T07:54:57;25.50;99.90
5554;DHT22;2800;49.528;8.666;2022-07-29T07:57:22;25.20;99.90
5554;DHT22;2800;49.528;8.666;2022-07-29T07:59:48;25.00;99.90
5554;DHT22;2800;49.528;8.666;2022-07-29T08:02:14;24.80;99.90
5554;DHT22;2800;49.528;8.666;2022-07-29T08:04:39;24.90;99.90
5554;DHT22;2800;49.528;8.666;2022-07-29T08:07:06;25.10;99.90
5554;DHT22;2800;49.528;8.666;2022-07-29T08:09:33;25.10;99.90
5554;DHT22;2800;49.528;8.666;2022-07-29T08:11:59;25.20;99.90
5554;DHT22;2800;49.528;8.666;2022-07-29T08:14:28;25.20;99.90
5554;DHT22;2800;49.528;8.666;2022-07-29T08:16:54;25.00;99.90
5554;DHT22;2800;49.528;8.666;2022-07-29T08:19:19;24.90;99.90
5554;DHT22;2800;49.528;8.666;2022-07-29T08:21:45;24.90;99.90
5554;DHT22;2800;49.528;8.666;2022-07-29T08:24:11;25.00;99.90
5554;DHT22;2800;49.528;8.666;2022-07-29T08:26:55;25.00;99.90
5554;DHT22;2800;49.528;8.666;2022-07-29T08:29:20;25.20;99.90
5554;DHT22;2800;49.528;8.666;2022-07-29T08:31:46;25.30;99.90
5554;DHT22;2800;49.528;8.666;2022-07-29T08:34:12;25.30;99.90
5554;DHT22;2800;49.528;8.666;2022-07-29T08:36:37;25.40;99.90
5554;DHT22;2800;49.528;8.666;2022-07-29T08:39:04;25.50;99.90
5554;DHT22;2800;49.528;8.666;2022-07-29T08:41:30;25.30;99.90
5554;DHT22;2800;49.528;8.666;2022-07-29T08:43:56;25.80;99.90
5554;DHT22;2800;49.528;8.666;2022-07-29T08:46:22;26.50;99.90
5554;DHT22;2800;49.528;8.666;2022-07-29T08:48:48;26.10;99.90
5554;DHT22;2800;49.528;8.666;2022-07-29T08:51:19;26.00;99.90
5554;DHT22;2800;49.528;8.666;2022-07-29T08:53:47;26.30;99.90
5554;DHT22;2800;49.528;8.666;2022-07-29T08:56:17;26.90;99.90
5554;DHT22;2800;49.528;8.666;2022-07-29T08:58:44;27.50;99.90
5554;DHT22;2800;49.528;8.666;2022-07-29T09:01:12;28.10;99.90
5554;DHT22;2800;49.528;8.666;2022-07-29T09:03:40;28.00;99.90
5554;DHT22;2800;49.528;8.666;2022-07-29T09:06:06;27.90;99.90
5554;DHT22;2800;49.528;8.666;2022-07-29T09:08:32;27.30;99.90
5554;DHT22;2800;49.528;8.666;2022-07-29T09:11:01;27.20;99.90
5554;DHT22;2800;49.528;8.666;2022-07-29T09:13:26;27.20;99.90
5554;DHT22;2800;49.528;8.666;2022-07-29T09:15:52;26.80;99.90
5554;DHT22;2800;49.528;8.666;2022-07-29T09:18:47;26.30;99.90
5554;DHT22;2800;49.528;8.666;2022-07-29T09:21:14;26.30;99.90
5554;DHT22;2800;49.528;8.666;2022-07-29T09:26:31;26.20;99.90
5554;DHT22;2800;49.528;8.666;2022-07-29T09:28:58;26.90;99.90
5554;DHT22;2800;49.528;8.666;2022-07-29T09:31:37;27.10;99.90
5554;DHT22;2800;49.528;8.666;2022-07-29T09:34:04;27.70;99.90
5554;DHT22;2800;49.528;8.666;2022-07-29T09:36:30;27.80;99.90
5554;DHT22;2800;49.528;8.666;2022-07-29T09:39:00;27.40;99.90
5554;DHT22;2800;49.528;8.666;2022-07-29T09:41:27;27.70;99.90
5554;DHT22;2800;49.528;8.666;2022-07-29T09:43:59;27.00;99.90
5554;DHT22;2800;49.528;8.666;2022-07-29T09:46:25;26.70;99.90
5554;DHT22;2800;49.528;8.666;2022-07-29T09:49:20;27.80;99.90
5554;DHT22;2800;49.528;8.666;2022-07-29T09:51:46;28.30;99.90
5554;DHT22;2800;49.528;8.666;2022-07-29T09:54:24;28.40;99.90
5554;DHT22;2800;49.528;8.666;2022-07-29T09:56:51;26.80;99.90
5554;DHT22;2800;49.528;8.666;2022-07-29T09:59:18;28.20;99.90
5554;DHT22;2800;49.528;8.666;2022-07-29T10:01:45;28.10;99.90
5554;DHT22;2800;49.528;8.666;2022-07-29T10:04:11;28.90;99.90
5554;DHT22;2800;49.528;8.666;2022-07-29T10:06:56;29.70;99.90
5554;DHT22;2800;49.528;8.666;2022-07-29T10:09:22;30.40;99.90
5554;DHT22;2800;49.528;8.666;2022-07-29T10:12:09;29.40;99.90
5554;DHT22;2800;49.528;8.666;2022-07-29T10:14:37;29.10;99.90
5554;DHT22;2800;49.528;8.666;2022-07-29T10:17:04;28.80;99.90
5554;DHT22;2800;49.528;8.666;2022-07-29T10:19:30;29.10;99.90
5554;DHT22;2800;49.528;8.666;2022-07-29T10:21:58;28.90;99.90
5554;DHT22;2800;49.528;8.666;2022-07-29T10:24:28;29.10;99.90
5554;DHT22;2800;49.528;8.666;2022-07-29T10:26:55;29.20;99.90
5554;DHT22;2800;49.528;8.666;2022-07-29T10:29:21;29.30;99.90
5554;DHT22;2800;49.528;8.666;2022-07-29T10:37:46;29.00;99.90
5554;DHT22;2800;49.528;8.666;2022-07-29T10:43:31;28.00;99.90
5554;DHT22;2800;49.528;8.666;2022-07-29T10:46:01;29.20;99.90
5554;DHT22;2800;49.528;8.666;2022-07-29T10:48:27;30.00;99.90
5554;DHT22;2800;49.528;8.666;2022-07-29T10:50:58;30.20;99.90
5554;DHT22;2800;49.528;8.666;2022-07-29T10:53:46;30.70;99.90
5554;DHT22;2800;49.528;8.666;2022-07-29T10:56:29;31.30;99.90
5554;DHT22;2800;49.528;8.666;2022-07-29T11:01:47;31.50;99.90
5554;DHT22;2800;49.528;8.666;2022-07-29T11:04:13;31.70;99.90
5554;DHT22;2800;49.528;8.666;2022-07-29T11:09:27;31.90;99.90
5554;DHT22;2800;49.528;8.666;2022-07-29T11:11:55;31.50;99.90
5554;DHT22;2800;49.528;8.666;2022-07-29T11:17:17;30.60;99.90
5554;DHT22;2800;49.528;8.666;2022-07-29T11:19:43;30.60;99.90
5554;DHT22;2800;49.528;8.666;2022-07-29T11:22:10;31.10;99.90
5554;DHT22;2800;49.528;8.666;2022-07-29T11:24:37;32.00;99.90
5554;DHT22;2800;49.528;8.666;2022-07-29T11:27:12;32.30;99.90
5554;DHT22;2800;49.528;8.666;2022-07-29T11:29:40;32.40;99.90
5554;DHT22;2800;49.528;8.666;2022-07-29T11:32:14;33.10;99.90
5554;DHT22;2800;49.528;8.666;2022-07-29T11:34:41;33.40;99.90
5554;DHT22;2800;49.528;8.666;2022-07-29T11:39:45;32.30;99.90
5554;DHT22;2800;49.528;8.666;2022-07-29T11:45:09;33.50;99.90
5554;DHT22;2800;49.528;8.666;2022-07-29T11:47:37;33.90;99.90
5554;DHT22;2800;49.528;8.666;2022-07-29T11:50:05;34.20;99.90
5554;DHT22;2800;49.528;8.666;2022-07-29T11:52:40;34.90;99.90
5554;DHT22;2800;49.528;8.666;2022-07-29T11:55:12;35.40;99.90
5554;DHT22;2800;49.528;8.666;2022-07-29T11:57:46;35.40;99.90
5554;DHT22;2800;49.528;8.666;2022-07-29T12:00:30;35.30;99.90
5554;DHT22;2800;49.528;8.666;2022-07-29T12:02:58;35.80;99.90
5554;DHT22;2800;49.528;8.666;2022-07-29T12:05:50;35.70;99.90
5554;DHT22;2800;49.528;8.666;2022-07-29T12:08:20;35.50;99.90
5554;DHT22;2800;49.528;8.666;2022-07-29T12:10:49;36.00;99.90
5554;DHT22;2800;49.528;8.666;2022-07-29T12:13:17;36.70;99.90
5554;DHT22;2800;49.528;8.666;2022-07-29T12:15:55;36.40;99.90
5554;DHT22;2800;49.528;8.666;2022-07-29T12:18:22;35.20;99.90
5554;DHT22;2800;49.528;8.666;2022-07-29T12:20:48;35.30;99.90
5554;DHT22;2800;49.528;8.666;2022-07-29T12:23:15;35.60;99.90
5554;DHT22;2800;49.528;8.666;2022-07-29T12:25:43;35.10;99.90
5554;DHT22;2800;49.528;8.666;2022-07-29T12:28:10;34.80;99.90
5554;DHT22;2800;49.528;8.666;2022-07-29T12:30:46;34.40;99.90
5554;DHT22;2800;49.528;8.666;2022-07-29T12:33:22;35.80;99.90
5554;DHT22;2800;49.528;8.666;2022-07-29T12:35:54;36.30;99.90
5554;DHT22;2800;49.528;8.666;2022-07-29T12:38:20;36.40;99.90
5554;DHT22;2800;49.528;8.666;2022-07-29T12:40:47;36.80;99.90
5554;DHT22;2800;49.528;8.666;2022-07-29T12:43:18;37.60;99.90
5554;DHT22;2800;49.528;8.666;2022-07-29T12:45:47;36.40;99.90
5554;DHT22;2800;49.528;8.666;2022-07-29T12:48:14;36.30;99.90
5554;DHT22;2800;49.528;8.666;2022-07-29T12:50:57;36.40;99.90
5554;DHT22;2800;49.528;8.666;2022-07-29T12:53:23;36.50;99.90
5554;DHT22;2800;49.528;8.666;2022-07-29T12:55:50;36.40;99.90
5554;DHT22;2800;49.528;8.666;2022-07-29T12:58:30;36.50;99.90
5554;DHT22;2800;49.528;8.666;2022-07-29T13:01:16;36.10;99.90
5554;DHT22;2800;49.528;8.666;2022-07-29T13:04:00;36.70;99.90
5554;DHT22;2800;49.528;8.666;2022-07-29T13:06:36;37.10;99.90
5554;DHT22;2800;49.528;8.666;2022-07-29T13:11:35;35.70;99.90
5554;DHT22;2800;49.528;8.666;2022-07-29T13:14:01;35.70;99.90
5554;DHT22;2800;49.528;8.666;2022-07-29T13:16:27;35.00;99.90
5554;DHT22;2800;49.528;8.666;2022-07-29T13:19:07;35.80;99.90
5554;DHT22;2800;49.528;8.666;2022-07-29T13:21:33;35.90;99.90
5554;DHT22;2800;49.528;8.666;2022-07-29T13:23:59;35.80;99.90
5554;DHT22;2800;49.528;8.666;2022-07-29T13:26:25;35.30;99.90
5554;DHT22;2800;49.528;8.666;2022-07-29T13:28:50;35.00;99.90
5554;DHT22;2800;49.528;8.666;2022-07-29T13:31:16;35.30;99.90
5554;DHT22;2800;49.528;8.666;2022-07-29T13:33:41;35.70;99.90
5554;DHT22;2800;49.528;8.666;2022-07-29T13:36:07;36.00;99.90
5554;DHT22;2800;49.528;8.666;2022-07-29T13:38:32;34.70;99.90
5554;DHT22;2800;49.528;8.666;2022-07-29T13:40:59;33.70;99.90
5554;DHT22;2800;49.528;8.666;2022-07-29T13:43:25;32.30;99.90
5554;DHT22;2800;49.528;8.666;2022-07-29T13:45:51;31.40;99.90
5554;DHT22;2800;49.528;8.666;2022-07-29T13:48:17;31.40;99.90
5554;DHT22;2800;49.528;8.666;2022-07-29T13:50:42;30.70;99.90
5554;DHT22;2800;49.528;8.666;2022-07-29T13:53:08;31.20;99.90
5554;DHT22;2800;49.528;8.666;2022-07-29T13:55:33;31.20;99.90
5554;DHT22;2800;49.528;8.666;2022-07-29T13:57:59;31.90;99.90
5554;DHT22;2800;49.528;8.666;2022-07-29T14:00:25;30.90;99.90
5554;DHT22;2800;49.528;8.666;2022-07-29T14:02:51;31.30;99.90
5554;DHT22;2800;49.528;8.666;2022-07-29T14:05:17;31.00;99.90
5554;DHT22;2800;49.528;8.666;2022-07-29T14:07:42;30.70;99.90
5554;DHT22;2800;49.528;8.666;2022-07-29T14:10:08;30.70;99.90
5554;DHT22;2800;49.528;8.666;2022-07-29T14:12:34;30.40;99.90
5554;DHT22;2800;49.528;8.666;2022-07-29T14:14:59;30.30;99.90
5554;DHT22;2800;49.528;8.666;2022-07-29T14:17:25;30.60;99.90
5554;DHT22;2800;49.528;8.666;2022-07-29T14:19:51;30.90;99.90
5554;DHT22;2800;49.528;8.666;2022-07-29T14:22:16;30.70;99.90
5554;DHT22;2800;49.528;8.666;2022-07-29T14:24:44;30.50;99.90
5554;DHT22;2800;49.528;8.666;2022-07-29T14:27:09;30.30;99.90
5554;DHT22;2800;49.528;8.666;2022-07-29T14:29:35;30.70;99.90
5554;DHT22;2800;49.528;8.666;2022-07-29T14:32:01;31.10;99.90
5554;DHT22;2800;49.528;8.666;2022-07-29T14:34:26;31.30;99.90
5554;DHT22;2800;49.528;8.666;2022-07-29T14:36:52;31.10;99.90
5554;DHT22;2800;49.528;8.666;2022-07-29T14:39:21;30.70;99.90
5554;DHT22;2800;49.528;8.666;2022-07-29T14:41:48;30.50;99.90
5554;DHT22;2800;49.528;8.666;2022-07-29T14:44:14;30.80;99.90
5554;DHT22;2800;49.528;8.666;2022-07-29T14:46:39;31.00;99.90
5554;DHT22;2800;49.528;8.666;2022-07-29T14:49:05;30.90;99.90
5554;DHT22;2800;49.528;8.666;2022-07-29T14:51:31;29.70;99.90
5554;DHT22;2800;49.528;8.666;2022-07-29T14:53:57;30.80;99.90
5554;DHT22;2800;49.528;8.666;2022-07-29T14:56:23;30.90;99.90
5554;DHT22;2800;49.528;8.666;2022-07-29T14:58:48;31.30;99.90
5554;DHT22;2800;49.528;8.666;2022-07-29T15:01:14;32.00;99.90
5554;DHT22;2800;49.528;8.666;2022-07-29T15:03:39;32.40;99.90
5554;DHT22;2800;49.528;8.666;2022-07-29T15:06:05;31.70;99.90
5554;DHT22;2800;49.528;8.666;2022-07-29T15:08:31;31.80;99.90
5554;DHT22;2800;49.528;8.666;2022-07-29T15:10:56;32.00;99.90
5554;DHT22;2800;49.528;8.666;2022-07-29T15:13:26;32.00;99.90
5554;DHT22;2800;49.528;8.666;2022-07-29T15:15:51;31.40;99.90
5554;DHT22;2800;49.528;8.666;2022-07-29T15:18:17;31.30;99.90
5554;DHT22;2800;49.528;8.666;2022-07-29T15:20:43;31.60;99.90
5554;DHT22;2800;49.528;8.666;2022-07-29T15:23:11;31.50;99.90
5554;DHT22;2800;49.528;8.666;2022-07-29T15:25:37;31.30;99.90
5554;DHT22;2800;49.528;8.666;2022-07-29T15:28:03;31.30;99.90
5554;DHT22;2800;49.528;8.666;2022-07-29T15:30:32;30.80;99.90
5554;DHT22;2800;49.528;8.666;2022-07-29T15:32:58;30.80;99.90
5554;DHT22;2800;49.528;8.666;2022-07-29T15:35:24;30.40;99.90
5554;DHT22;2800;49.528;8.666;2022-07-29T15:37:49;30.30;99.90
5554;DHT22;2800;49.528;8.666;2022-07-29T15:40:15;30.30;99.90
5554;DHT22;2800;49.528;8.666;2022-07-29T15:42:41;30.20;99.90
5554;DHT22;2800;49.528;8.666;2022-07-29T15:45:06;30.10;99.90
5554;DHT22;2800;49.528;8.666;2022-07-29T15:47:35;30.10;99.90
5554;DHT22;2800;49.528;8.666;2022-07-29T15:50:00;29.90;99.90
5554;DHT22;2800;49.528;8.666;2022-07-29T15:52:26;29.90;99.90
5554;DHT22;2800;49.528;8.666;2022-07-29T15:54:53;29.60;99.90
5554;DHT22;2800;49.528;8.666;2022-07-29T15:57:19;29.70;99.90
5554;DHT22;2800;49.528;8.666;2022-07-29T15:59:44;29.70;99.90
5554;DHT22;2800;49.528;8.666;2022-07-29T16:02:10;29.50;99.90
5554;DHT22;2800;49.528;8.666;2022-07-29T16:04:36;29.10;99.90
5554;DHT22;2800;49.528;8.666;2022-07-29T16:07:01;29.20;99.90
5554;DHT22;2800;49.528;8.666;2022-07-29T16:09:27;29.20;99.90
5554;DHT22;2800;49.528;8.666;2022-07-29T16:11:53;29.20;99.90
5554;DHT22;2800;49.528;8.666;2022-07-29T16:14:19;29.00;99.90
5554;DHT22;2800;49.528;8.666;2022-07-29T16:16:45;28.80;99.90
5554;DHT22;2800;49.528;8.666;2022-07-29T16:19:11;28.90;99.90
5554;DHT22;2800;49.528;8.666;2022-07-29T16:21:37;29.00;99.90
5554;DHT22;2800;49.528;8.666;2022-07-29T16:24:04;28.80;99.90
5554;DHT22;2800;49.528;8.666;2022-07-29T16:26:30;28.80;99.90
5554;DHT22;2800;49.528;8.666;2022-07-29T16:28:56;28.70;99.90
5554;DHT22;2800;49.528;8.666;2022-07-29T16:31:22;28.70;99.90
5554;DHT22;2800;49.528;8.666;2022-07-29T16:33:49;28.60;99.90
5554;DHT22;2800;49.528;8.666;2022-07-29T16:36:15;28.40;99.90
5554;DHT22;2800;49.528;8.666;2022-07-29T16:38:40;28.30;99.90
5554;DHT22;2800;49.528;8.666;2022-07-29T16:41:06;28.30;99.90
5554;DHT22;2800;49.528;8.666;2022-07-29T16:43:32;28.30;99.90
5554;DHT22;2800;49.528;8.666;2022-07-29T16:45:58;28.10;99.90